Time;durP1;ratioP1;P1;durP2;ratioP2;P2;SDS_P1;SDS_P2;PMS_P1;PMS_P2;Temp;Humidity;BMP_temperature;BMP_pressure;BME280_temperature;BME280_humidity;BME280_pressure;Samples;Min_cycle;Max_cycle;Signal;HPM_P1;HPM_P2
2020/12/28 00:01:38;;;;;;;4.87;3.17;;;21.50;51.20;;;;;;5093484;28;20385;-74
2020/12/28 00:04:04;;;;;;;5.33;3.03;;;21.60;51.20;;;;;;5093389;28;20419;-73
2020/12/28 00:06:29;;;;;;;4.60;3.47;;;21.60;51.20;;;;;;5093605;28;20446;-74
2020/12/28 00:08:55;;;;;;;4.63;3.30;;;21.50;51.70;;;;;;5093879;28;20173;-74
2020/12/28 00:11:21;;;;;;;4.50;3.10;;;21.50;51.20;;;;;;5093835;28;20517;-74
2020/12/28 00:13:47;;;;;;;3.73;3.20;;;21.50;51.20;;;;;;5093762;28;20193;-74
2020/12/28 00:16:14;;;;;;;6.00;4.20;;;21.50;51.20;;;;;;5093586;28;20185;-74
2020/12/28 00:18:40;;;;;;;2.80;2.50;;;21.50;51.20;;;;;;5093480;28;20400;-74
2020/12/28 00:21:07;;;;;;;4.43;3.33;;;21.50;51.20;;;;;;5093367;28;20400;-74
2020/12/28 00:23:34;;;;;;;4.40;2.97;;;21.50;51.30;;;;;;5093605;28;20412;-74
2020/12/28 00:25:59;;;;;;;4.47;3.27;;;21.50;51.30;;;;;;5093338;28;20427;-74
2020/12/28 00:28:25;;;;;;;4.57;3.60;;;21.50;51.30;;;;;;5093426;28;20402;-74
2020/12/28 00:30:51;;;;;;;4.83;3.13;;;21.50;51.30;;;;;;5093394;28;20216;-73
2020/12/28 00:33:16;;;;;;;4.13;3.70;;;21.50;51.30;;;;;;5093495;28;20192;-74
2020/12/28 00:35:45;;;;;;;5.50;3.30;;;21.50;51.40;;;;;;5093153;28;20162;-73
2020/12/28 00:38:11;;;;;;;4.27;3.10;;;21.50;51.40;;;;;;5093292;28;20154;-74
2020/12/28 00:40:37;;;;;;;3.77;3.03;;;21.40;51.40;;;;;;5093212;28;20381;-74
2020/12/28 00:43:03;;;;;;;5.13;3.13;;;21.50;51.40;;;;;;5093402;28;20170;-74
2020/12/28 00:45:28;;;;;;;5.20;3.17;;;21.50;51.50;;;;;;5093111;28;20403;-74
2020/12/28 00:47:54;;;;;;;4.90;3.63;;;21.50;52.10;;;;;;5093025;28;20245;-74
2020/12/28 00:50:19;;;;;;;6.67;3.63;;;21.40;51.50;;;;;;5093134;28;20228;-73
2020/12/28 00:52:45;;;;;;;4.40;3.23;;;21.40;51.50;;;;;;5092959;28;20198;-73
2020/12/28 00:55:10;;;;;;;3.47;3.03;;;21.50;51.60;;;;;;5093366;28;20181;-73
2020/12/28 00:57:36;;;;;;;6.43;3.60;;;21.40;51.50;;;;;;5092955;28;20186;-74
2020/12/28 01:00:05;;;;;;;3.83;3.10;;;21.40;51.50;;;;;;5093057;28;20178;-73
2020/12/28 01:02:30;;;;;;;4.87;2.83;;;21.40;51.60;;;;;;5092968;28;20188;-74
2020/12/28 01:04:56;;;;;;;3.63;2.70;;;21.40;51.60;;;;;;5092910;28;20411;-74
2020/12/28 01:07:22;;;;;;;3.57;2.67;;;21.40;51.60;;;;;;5092865;28;20284;-74
2020/12/28 01:09:47;;;;;;;3.50;3.00;;;21.40;51.60;;;;;;5093408;28;20632;-74
2020/12/28 01:12:13;;;;;;;4.13;2.97;;;21.40;51.60;;;;;;5092869;28;20205;-74
2020/12/28 01:14:39;;;;;;;4.63;3.20;;;21.40;51.70;;;;;;5094088;28;20166;-74
2020/12/28 01:17:05;;;;;;;5.10;2.90;;;21.40;51.70;;;;;;5097045;28;20189;-74
2020/12/28 01:19:31;;;;;;;4.10;2.90;;;21.40;51.70;;;;;;5097411;28;20925;-74
2020/12/28 01:21:57;;;;;;;2.83;2.53;;;21.40;51.70;;;;;;5096779;28;20434;-74
2020/12/28 01:24:23;;;;;;;4.10;3.30;;;21.40;51.70;;;;;;5096706;28;20166;-74
2020/12/28 01:26:48;;;;;;;3.43;2.63;;;21.40;51.70;;;;;;5096611;28;20185;-74
2020/12/28 01:29:14;;;;;;;2.93;2.60;;;21.40;51.80;;;;;;5095356;28;20174;-74
2020/12/28 01:31:39;;;;;;;4.60;2.93;;;21.30;51.60;;;;;;5096680;28;20165;-74
2020/12/28 01:34:05;;;;;;;3.07;2.77;;;21.30;51.70;;;;;;5096709;28;20660;-74
2020/12/28 01:36:31;;;;;;;3.00;2.50;;;21.30;51.70;;;;;;5096597;28;20264;-74
2020/12/28 01:38:56;;;;;;;3.93;3.00;;;21.30;51.70;;;;;;5096459;28;20536;-74
2020/12/28 01:41:22;;;;;;;4.47;3.57;;;21.30;51.70;;;;;;5096944;28;20176;-74
2020/12/28 01:43:47;;;;;;;3.83;2.77;;;21.30;52.30;;;;;;5096426;28;20170;-74
2020/12/28 01:46:16;;;;;;;2.63;2.43;;;21.30;51.70;;;;;;5096494;28;20225;-73
2020/12/28 01:48:42;;;;;;;5.73;2.90;;;21.30;51.70;;;;;;5096419;28;20688;-74
2020/12/28 01:51:08;;;;;;;3.50;2.60;;;21.30;51.80;;;;;;5096236;28;20477;-74
2020/12/28 01:53:34;;;;;;;3.73;3.00;;;21.30;51.80;;;;;;5096096;28;20598;-74
2020/12/28 01:56:05;;;;;;;3.20;2.80;;;21.30;51.80;;;;;;5095993;28;20451;-74
2020/12/28 01:58:31;;;;;;;3.17;2.87;;;21.30;52.40;;;;;;5096076;28;20395;-74
2020/12/28 02:00:58;;;;;;;2.70;2.37;;;21.30;51.80;;;;;;5096070;28;20403;-74
2020/12/28 02:03:25;;;;;;;3.10;2.63;;;21.30;51.80;;;;;;5094707;28;20802;-74
2020/12/28 02:05:52;;;;;;;4.37;3.07;;;21.30;51.80;;;;;;5094886;28;20431;-74
2020/12/28 02:08:18;;;;;;;4.03;2.47;;;21.30;51.90;;;;;;5095886;28;20412;-74
2020/12/28 02:10:44;;;;;;;3.30;3.00;;;21.30;51.80;;;;;;5095819;28;20442;-74
2020/12/28 02:13:10;;;;;;;3.83;2.77;;;21.30;51.80;;;;;;5095736;28;20486;-74
2020/12/28 02:15:35;;;;;;;3.30;2.50;;;21.30;51.90;;;;;;5094381;28;20419;-74
2020/12/28 02:18:01;;;;;;;3.53;2.53;;;21.30;51.90;;;;;;5095720;28;20433;-74
2020/12/28 02:20:27;;;;;;;3.30;2.87;;;21.30;51.90;;;;;;5095703;28;20632;-73
2020/12/28 02:22:52;;;;;;;4.57;2.90;;;21.30;51.90;;;;;;5095636;28;20169;-73
2020/12/28 02:25:18;;;;;;;3.30;2.33;;;21.30;51.90;;;;;;5094554;28;20174;-74
2020/12/28 02:27:44;;;;;;;4.53;2.90;;;21.30;51.90;;;;;;5095465;28;20190;-74
2020/12/28 02:30:10;;;;;;;3.37;2.50;;;21.30;52.00;;;;;;5095515;28;20181;-73
2020/12/28 02:32:35;;;;;;;3.83;2.90;;;21.30;51.90;;;;;;5095363;28;20201;-74
2020/12/28 02:35:01;;;;;;;2.90;2.10;;;21.30;52.00;;;;;;5095394;28;20648;-74
2020/12/28 02:37:26;;;;;;;3.00;2.70;;;21.30;52.00;;;;;;5095547;28;20225;-74
2020/12/28 02:39:52;;;;;;;2.93;2.43;;;21.30;52.00;;;;;;5095567;28;20599;-74
2020/12/28 02:42:18;;;;;;;2.37;2.13;;;21.30;52.00;;;;;;5095267;28;20166;-74
2020/12/28 02:44:43;;;;;;;4.83;2.67;;;21.30;52.00;;;;;;5095173;28;20177;-74
2020/12/28 02:47:09;;;;;;;4.17;3.20;;;21.30;52.00;;;;;;5095127;28;20224;-74
2020/12/28 02:49:34;;;;;;;3.83;2.47;;;21.20;52.00;;;;;;5095079;28;20169;-73
2020/12/28 02:52:00;;;;;;;2.83;2.33;;;21.20;52.00;;;;;;5094971;28;20170;-74
2020/12/28 02:54:25;;;;;;;2.90;2.53;;;21.20;52.00;;;;;;5095305;28;20242;-74
2020/12/28 02:56:51;;;;;;;4.50;2.80;;;21.20;52.00;;;;;;5094907;28;20186;-74
2020/12/28 02:59:17;;;;;;;3.37;2.53;;;21.20;52.00;;;;;;5093700;28;20610;-74
2020/12/28 03:01:42;;;;;;;3.30;2.30;;;21.20;52.00;;;;;;5095366;28;20244;-74
2020/12/28 03:04:08;;;;;;;5.47;2.70;;;21.20;52.00;;;;;;5094825;28;20174;-74
2020/12/28 03:06:33;;;;;;;3.40;2.23;;;21.20;52.10;;;;;;5094687;28;20262;-74
2020/12/28 03:08:59;;;;;;;2.80;2.50;;;21.20;52.00;;;;;;5094721;28;20177;-74
2020/12/28 03:11:24;;;;;;;3.13;2.53;;;21.20;52.10;;;;;;5093408;28;20243;-74
2020/12/28 03:13:50;;;;;;;2.90;2.60;;;21.20;52.00;;;;;;5094804;28;20189;-74
2020/12/28 03:16:16;;;;;;;2.90;2.23;;;21.20;52.10;;;;;;5094504;28;20197;-73
2020/12/28 03:18:42;;;;;;;3.43;2.80;;;21.20;52.10;;;;;;5094500;28;20166;-74
2020/12/28 03:21:08;;;;;;;2.83;2.33;;;21.20;52.00;;;;;;5094441;28;20403;-74
2020/12/28 03:23:33;;;;;;;3.67;2.67;;;21.20;52.10;;;;;;5094442;28;20166;-74
2020/12/28 03:25:59;;;;;;;2.30;1.83;;;21.20;52.00;;;;;;5094344;28;20190;-74
2020/12/28 03:28:24;;;;;;;3.40;2.17;;;21.20;52.10;;;;;;5094322;28;20170;-74
2020/12/28 03:30:50;;;;;;;2.63;2.17;;;21.20;52.10;;;;;;5094322;28;20212;-74
2020/12/28 03:33:16;;;;;;;4.70;2.40;;;21.20;52.10;;;;;;5094164;28;20193;-74
2020/12/28 03:35:42;;;;;;;4.17;3.63;;;21.20;52.10;;;;;;5094113;28;20180;-74
2020/12/28 03:38:07;;;;;;;2.63;2.13;;;21.20;52.10;;;;;;5094309;28;20399;-74
2020/12/28 03:40:33;;;;;;;3.00;2.70;;;21.20;52.10;;;;;;5094123;28;20404;-74
2020/12/28 03:42:59;;;;;;;3.70;2.63;;;21.20;52.10;;;;;;5093050;28;20173;-74
2020/12/28 03:45:25;;;;;;;3.20;2.60;;;21.20;52.10;;;;;;5094057;28;20741;-74
2020/12/28 03:47:50;;;;;;;2.67;2.30;;;21.20;52.10;;;;;;5094175;28;20655;-74
2020/12/28 03:50:16;;;;;;;2.60;2.00;;;21.20;52.10;;;;;;5094475;28;20170;-72
2020/12/28 03:52:42;;;;;;;3.00;1.97;;;21.20;52.10;;;;;;5093891;28;20237;-74
2020/12/28 03:55:07;;;;;;;2.80;2.30;;;21.20;52.20;;;;;;5094014;28;20554;-74
2020/12/28 03:57:33;;;;;;;3.60;2.47;;;21.20;52.20;;;;;;5093983;28;20204;-74
2020/12/28 03:59:59;;;;;;;2.77;1.70;;;21.20;52.20;;;;;;5093821;28;20411;-73
2020/12/28 04:02:25;;;;;;;3.00;2.10;;;21.20;52.20;;;;;;5093712;28;20166;-73
2020/12/28 04:04:51;;;;;;;3.23;2.23;;;21.20;52.20;;;;;;5093691;28;20784;-74
2020/12/28 04:07:16;;;;;;;3.40;2.40;;;21.10;52.10;;;;;;5093894;28;20204;-74
2020/12/28 04:09:42;;;;;;;2.30;2.10;;;21.10;52.20;;;;;;5093875;28;20705;-73
2020/12/28 04:12:07;;;;;;;3.63;2.63;;;21.10;52.10;;;;;;5093519;28;20181;-74
2020/12/28 04:14:33;;;;;;;2.80;2.47;;;21.10;52.20;;;;;;5093501;28;20174;-74
2020/12/28 04:16:59;;;;;;;2.93;2.03;;;21.10;52.20;;;;;;5093607;28;20186;-74
2020/12/28 04:19:24;;;;;;;3.07;2.00;;;21.10;52.20;;;;;;5093726;28;20165;-73
2020/12/28 04:21:50;;;;;;;4.07;2.20;;;21.10;52.20;;;;;;5092101;28;20717;-73
2020/12/28 04:24:15;;;;;;;2.73;2.00;;;21.10;52.20;;;;;;5093439;28;20173;-74
2020/12/28 04:26:45;;;;;;;2.87;1.90;;;21.10;52.20;;;;;;5093302;28;20217;-74
2020/12/28 04:29:11;;;;;;;2.40;2.20;;;21.20;52.20;;;;;;5093379;28;20234;-73
2020/12/28 04:31:37;;;;;;;1.87;1.67;;;21.10;52.20;;;;;;5093303;28;20840;-74
2020/12/28 04:34:04;;;;;;;2.70;2.43;;;21.20;52.20;;;;;;5093198;28;20484;-74
2020/12/28 04:36:30;;;;;;;3.03;2.30;;;21.20;52.20;;;;;;5093291;28;20474;-74
2020/12/28 04:38:55;;;;;;;3.40;2.50;;;21.20;52.20;;;;;;5093423;28;20443;-74
2020/12/28 04:41:21;;;;;;;2.40;1.90;;;21.20;52.20;;;;;;5093532;28;20247;-74
2020/12/28 04:43:47;;;;;;;2.77;2.20;;;21.20;52.20;;;;;;5093083;28;20613;-74
2020/12/28 04:46:12;;;;;;;2.10;1.90;;;21.20;52.20;;;;;;5093345;28;20201;-74
2020/12/28 04:48:38;;;;;;;3.13;2.13;;;21.20;52.20;;;;;;5092526;28;20176;-74
2020/12/28 04:51:04;;;;;;;2.83;2.20;;;21.20;52.20;;;;;;5093150;28;20208;-74
2020/12/28 04:53:30;;;;;;;2.50;1.90;;;21.20;52.20;;;;;;5092999;28;20471;-74
2020/12/28 04:55:57;;;;;;;2.40;1.90;;;21.10;52.20;;;;;;5092941;28;20256;-73
2020/12/28 04:58:23;;;;;;;2.90;2.03;;;21.20;52.20;;;;;;5092940;28;20460;-74
2020/12/28 05:01:00;;;;;;;2.43;2.20;;;21.10;52.20;;;;;;5092983;28;20957;-74
2020/12/28 05:03:26;;;;;;;2.80;2.03;;;21.20;52.20;;;;;;5092988;28;20418;-74
2020/12/28 05:05:52;;;;;;;2.50;1.70;;;21.10;52.80;;;;;;5092848;28;20442;-74
2020/12/28 05:08:18;;;;;;;2.20;1.97;;;21.10;52.20;;;;;;5092939;28;20415;-75
2020/12/28 05:10:44;;;;;;;2.47;2.10;;;21.10;52.20;;;;;;5093227;28;20539;-74
2020/12/28 05:13:11;;;;;;;3.10;2.20;;;21.10;52.20;;;;;;5093018;28;20455;-74
2020/12/28 05:15:46;;;;;;;2.83;2.40;;;21.10;52.30;;;;;;5093046;28;20191;-74
2020/12/28 05:18:16;;;;;;;3.00;2.30;;;21.10;52.30;;;;;;5092861;28;20512;-74
2020/12/28 05:20:44;;;;;;;1.90;1.70;;;21.10;52.30;;;;;;5093264;28;20414;-74
2020/12/28 05:23:10;;;;;;;2.77;1.73;;;21.10;52.30;;;;;;5093518;28;20494;-74
2020/12/28 05:25:36;;;;;;;3.00;2.20;;;21.10;52.30;;;;;;5092922;28;20419;-73
2020/12/28 05:28:03;;;;;;;2.43;1.80;;;21.10;52.30;;;;;;5093037;28;20211;-74
2020/12/28 05:30:34;;;;;;;2.73;1.80;;;21.10;52.30;;;;;;5093009;28;20411;-74
2020/12/28 05:33:04;;;;;;;3.27;2.27;;;21.10;52.30;;;;;;5092923;28;20447;-73
2020/12/28 05:35:31;;;;;;;3.00;1.90;;;21.10;52.30;;;;;;5092933;28;20415;-74
2020/12/28 05:37:59;;;;;;;3.57;2.37;;;21.10;52.30;;;;;;5092615;28;20408;-74
2020/12/28 05:40:26;;;;;;;2.60;2.13;;;21.10;52.20;;;;;;5092683;28;20408;-73
2020/12/28 05:42:53;;;;;;;2.20;1.97;;;21.10;52.20;;;;;;5092828;28;20416;-73
2020/12/28 05:45:19;;;;;;;2.60;1.90;;;21.10;52.20;;;;;;5092840;28;20837;-74
2020/12/28 05:47:52;;;;;;;3.30;2.37;;;21.20;52.20;;;;;;5092804;28;20518;-74
2020/12/28 05:50:21;;;;;;;2.27;2.07;;;21.20;52.20;;;;;;5092763;28;20181;-73
2020/12/28 05:52:51;;;;;;;2.13;1.80;;;21.20;52.20;;;;;;5092739;28;20565;-74
2020/12/28 05:55:19;;;;;;;2.60;1.50;;;21.20;52.20;;;;;;5092540;28;20964;-73
2020/12/28 05:57:45;;;;;;;2.30;1.80;;;21.20;52.20;;;;;;5092701;28;20480;-74
2020/12/28 06:00:11;;;;;;;2.57;1.60;;;21.30;52.20;;;;;;5092499;28;20408;-74
2020/12/28 06:02:39;;;;;;;2.57;1.83;;;21.30;52.70;;;;;;5096330;28;20418;-74
2020/12/28 06:05:09;;;;;;;1.93;1.73;;;21.30;52.10;;;;;;5096022;28;20173;-73
2020/12/28 06:07:34;;;;;;;3.00;1.80;;;21.30;52.10;;;;;;5096118;28;20846;-74
2020/12/28 06:10:00;;;;;;;1.70;1.57;;;21.30;52.10;;;;;;5096158;28;20407;-74
2020/12/28 06:12:26;;;;;;;2.43;2.13;;;21.30;52.00;;;;;;5096006;28;20255;-73
2020/12/28 06:14:52;;;;;;;3.00;1.67;;;21.30;52.00;;;;;;5096111;28;20172;-73
2020/12/28 06:17:17;;;;;;;3.00;2.40;;;21.30;52.00;;;;;;5095688;28;20269;-73
2020/12/28 06:19:43;;;;;;;1.83;1.50;;;21.30;52.00;;;;;;5095687;28;20170;-73
2020/12/28 06:22:18;;;;;;;2.57;1.97;;;21.30;52.00;;;;;;5096219;28;20169;-73
2020/12/28 06:24:43;;;;;;;3.03;2.10;;;21.40;52.00;;;;;;5095946;28;20629;-73
2020/12/28 06:27:10;;;;;;;1.93;1.67;;;21.40;52.00;;;;;;5095509;28;20434;-74
2020/12/28 06:29:37;;;;;;;1.97;1.60;;;21.40;52.00;;;;;;5095497;28;20174;-73
2020/12/28 06:32:13;;;;;;;1.50;1.40;;;21.40;52.00;;;;;;5095494;28;20498;-74
2020/12/28 06:34:40;;;;;;;2.00;1.80;;;21.40;52.00;;;;;;5095847;28;20443;-74
2020/12/28 06:37:06;;;;;;;2.60;2.00;;;21.30;51.90;;;;;;5095306;28;20416;-74
2020/12/28 06:39:31;;;;;;;2.43;2.17;;;21.40;52.00;;;;;;5095323;28;20404;-74
2020/12/28 06:42:26;;;;;;;2.93;2.00;;;21.40;52.00;;;;;;5095565;28;20181;-74
2020/12/28 06:44:52;;;;;;;2.67;1.87;;;21.40;52.00;;;;;;5082244;28;20194;-74
2020/12/28 06:47:23;;;;;;;2.93;2.60;;;21.30;52.00;;;;;;5095046;28;20990;-73
2020/12/28 06:49:49;;;;;;;2.20;1.80;;;21.30;52.00;;;;;;5095191;28;20162;-73
2020/12/28 06:52:16;;;;;;;2.67;1.70;;;21.30;52.00;;;;;;5094162;28;20403;-74
2020/12/28 06:54:42;;;;;;;2.50;1.60;;;21.30;52.00;;;;;;5095148;28;20808;-73
2020/12/28 06:57:09;;;;;;;2.57;2.37;;;21.30;52.00;;;;;;5094954;28;20631;-74
2020/12/28 06:59:35;;;;;;;3.70;1.70;;;21.30;52.00;;;;;;5095243;28;20422;-74
2020/12/28 07:02:02;;;;;;;1.97;1.60;;;21.30;52.00;;;;;;5095147;28;20957;-74
2020/12/28 07:04:37;;;;;;;1.83;1.53;;;21.40;52.10;;;;;;5095110;28;20408;-73
2020/12/28 07:07:07;;;;;;;2.07;1.73;;;21.40;52.10;;;;;;5094662;28;20423;-73
2020/12/28 07:09:36;;;;;;;1.80;1.40;;;21.40;52.10;;;;;;5094764;28;20416;-74
2020/12/28 07:12:06;;;;;;;2.13;1.80;;;21.40;52.10;;;;;;5094444;28;20416;-74
2020/12/28 07:14:32;;;;;;;2.27;1.70;;;21.40;52.60;;;;;;5094694;28;20812;-74
2020/12/28 07:16:58;;;;;;;2.30;1.73;;;21.40;52.00;;;;;;5094884;28;20480;-73
2020/12/28 07:19:24;;;;;;;3.70;2.03;;;21.40;52.00;;;;;;5094782;28;20201;-74
2020/12/28 07:21:49;;;;;;;1.97;1.57;;;21.40;52.00;;;;;;5094302;28;20178;-73
2020/12/28 07:24:15;;;;;;;2.67;1.93;;;21.40;52.00;;;;;;5094739;28;20602;-73
2020/12/28 07:26:42;;;;;;;2.00;1.73;;;21.40;52.00;;;;;;5094705;28;20246;-74
2020/12/28 07:29:13;;;;;;;2.00;1.50;;;21.50;52.00;;;;;;5094697;28;20178;-73
2020/12/28 07:31:39;;;;;;;2.57;1.80;;;21.50;52.10;;;;;;5094357;28;20415;-73
2020/12/28 07:34:05;;;;;;;2.90;1.77;;;21.40;51.90;;;;;;5094221;28;20558;-73
2020/12/28 07:36:32;;;;;;;1.90;1.70;;;21.50;52.00;;;;;;5094186;28;20465;-74
2020/12/28 07:38:59;;;;;;;1.77;1.60;;;21.40;51.90;;;;;;5094432;28;20486;-73
2020/12/28 07:41:25;;;;;;;1.73;1.63;;;21.40;51.90;;;;;;5094205;28;20399;-73
2020/12/28 07:43:55;;;;;;;2.57;1.70;;;21.50;52.00;;;;;;5094375;28;20918;-74
2020/12/28 07:46:33;;;;;;;2.30;1.83;;;21.50;52.50;;;;;;5094059;28;20205;-73
2020/12/28 07:49:21;;;;;;;2.30;1.80;;;21.50;52.00;;;;;;5093944;28;20403;-74
2020/12/28 07:51:50;;;;;;;2.10;1.77;;;21.50;52.00;;;;;;5093975;28;20436;-74
2020/12/28 07:54:21;;;;;;;1.70;1.40;;;21.40;51.90;;;;;;5093863;28;20471;-73
2020/12/28 07:56:50;;;;;;;1.60;1.50;;;21.50;52.00;;;;;;5094106;28;20428;-74
2020/12/28 07:59:37;;;;;;;2.80;1.80;;;21.50;52.00;;;;;;5093734;28;20487;-73
2020/12/28 08:02:16;;;;;;;3.40;1.67;;;21.50;52.00;;;;;;5093741;28;20391;-73
2020/12/28 08:04:42;;;;;;;2.10;1.70;;;21.50;52.10;;;;;;5093978;28;20398;-74
2020/12/28 08:07:08;;;;;;;1.80;1.40;;;21.50;52.10;;;;;;5092401;28;20439;-74
2020/12/28 08:09:33;;;;;;;1.80;1.50;;;21.50;52.00;;;;;;5093620;28;20404;-73
2020/12/28 08:12:00;;;;;;;1.63;1.30;;;21.50;52.00;;;;;;5093845;28;20261;-73
2020/12/28 08:14:26;;;;;;;3.13;2.23;;;21.50;52.10;;;;;;5093504;28;20664;-73
2020/12/28 08:16:52;;;;;;;2.63;1.63;;;21.50;52.10;;;;;;5093410;28;20426;-73
2020/12/28 08:19:28;;;;;;;2.37;1.70;;;21.50;52.10;;;;;;5093554;28;20531;-73
2020/12/28 08:21:54;;;;;;;1.70;1.60;;;21.50;52.10;;;;;;5093680;28;20234;-73
2020/12/28 08:24:21;;;;;;;2.83;1.80;;;21.40;52.10;;;;;;5093435;28;20446;-73
2020/12/28 08:26:48;;;;;;;1.80;1.70;;;21.40;52.10;;;;;;5093523;28;20473;-73
2020/12/28 08:29:14;;;;;;;1.60;1.40;;;21.40;52.10;;;;;;5093266;28;20423;-73
2020/12/28 08:31:41;;;;;;;1.90;1.70;;;21.40;52.10;;;;;;5093252;28;20452;-73
2020/12/28 08:34:07;;;;;;;2.57;1.80;;;21.40;52.10;;;;;;5093436;28;20470;-73
2020/12/28 08:36:35;;;;;;;1.97;1.67;;;21.40;52.10;;;;;;5093167;28;20466;-73
2020/12/28 08:39:25;;;;;;;2.00;1.57;;;21.40;52.20;;;;;;5093487;28;20380;-73
2020/12/28 08:41:55;;;;;;;1.87;1.50;;;21.40;52.20;;;;;;5093181;28;20926;-73
2020/12/28 08:44:38;;;;;;;2.80;1.60;;;21.40;52.20;;;;;;5093488;28;20433;-73
2020/12/28 08:47:05;;;;;;;2.60;1.67;;;21.40;52.20;;;;;;5093069;28;20431;-72
2020/12/28 08:49:33;;;;;;;1.97;1.70;;;21.40;52.20;;;;;;5093124;28;20403;-73
2020/12/28 08:52:09;;;;;;;2.03;1.80;;;21.40;52.20;;;;;;5093391;28;20813;-73
2020/12/28 08:54:35;;;;;;;2.17;1.97;;;21.40;52.20;;;;;;5093156;28;20436;-73
2020/12/28 08:57:00;;;;;;;2.10;1.67;;;21.40;52.20;;;;;;5092976;28;20427;-73
2020/12/28 08:59:26;;;;;;;2.80;1.70;;;21.40;52.20;;;;;;5093450;28;20229;-73
2020/12/28 09:01:53;;;;;;;4.20;2.00;;;21.40;52.20;;;;;;5093003;28;20235;-73
2020/12/28 09:04:19;;;;;;;2.63;1.83;;;21.40;52.20;;;;;;5091629;28;20707;-73
2020/12/28 09:06:45;;;;;;;2.50;2.30;;;21.40;52.20;;;;;;5093075;28;20431;-72
2020/12/28 09:09:11;;;;;;;3.03;2.00;;;21.40;52.20;;;;;;5093173;28;20403;-73
2020/12/28 09:11:36;;;;;;;2.43;2.00;;;21.50;52.20;;;;;;5092972;28;20158;-73
2020/12/28 09:14:02;;;;;;;2.40;1.90;;;21.50;52.20;;;;;;5092823;28;20606;-73
2020/12/28 09:16:28;;;;;;;4.20;1.67;;;21.50;52.20;;;;;;5092777;28;20197;-73
2020/12/28 09:18:53;;;;;;;3.00;2.17;;;21.50;52.20;;;;;;5093145;28;20545;-73
2020/12/28 09:21:19;;;;;;;2.40;1.93;;;21.50;52.20;;;;;;5092846;28;20166;-73
2020/12/28 09:23:45;;;;;;;3.90;2.10;;;21.50;52.20;;;;;;5092859;28;20644;-73
2020/12/28 09:26:10;;;;;;;3.70;2.40;;;21.50;52.20;;;;;;5092689;28;20204;-73
2020/12/28 09:28:36;;;;;;;5.20;2.00;;;21.50;52.20;;;;;;5092333;28;20223;-74
2020/12/28 09:31:01;;;;;;;4.63;2.90;;;21.50;52.20;;;;;;5090564;28;20177;-73
2020/12/28 09:33:27;;;;;;;4.10;2.27;;;21.50;52.20;;;;;;5090526;28;20203;-74
2020/12/28 09:35:53;;;;;;;5.93;2.20;;;21.50;52.20;;;;;;5091563;28;21016;-74
2020/12/28 09:38:18;;;;;;;4.07;3.30;;;21.50;52.20;;;;;;5094661;28;20195;-73
2020/12/28 09:40:44;;;;;;;3.40;2.60;;;21.50;52.20;;;;;;5094367;28;20162;-73
2020/12/28 09:43:09;;;;;;;4.20;2.57;;;21.60;52.20;;;;;;5094842;28;20283;-74
2020/12/28 09:45:36;;;;;;;4.50;1.80;;;21.50;52.20;;;;;;5095298;28;20178;-73
2020/12/28 09:48:02;;;;;;;5.83;2.47;;;21.60;52.30;;;;;;5096293;28;20173;-73
2020/12/28 09:50:27;;;;;;;3.60;2.30;;;21.60;52.30;;;;;;5096270;28;20549;-72
2020/12/28 09:52:53;;;;;;;3.97;2.13;;;21.60;52.30;;;;;;5096483;28;20933;-73
2020/12/28 09:55:19;;;;;;;5.03;2.07;;;21.60;52.30;;;;;;5096230;28;20197;-73
2020/12/28 09:57:44;;;;;;;4.20;3.00;;;21.60;52.30;;;;;;5096125;28;20194;-71
2020/12/28 10:00:10;;;;;;;4.77;2.20;;;21.60;52.30;;;;;;5096392;28;20185;-73
2020/12/28 10:02:35;;;;;;;3.50;2.37;;;21.60;52.30;;;;;;5096210;28;20177;-73
2020/12/28 10:05:01;;;;;;;2.67;2.40;;;21.60;52.40;;;;;;5096421;28;20161;-72
2020/12/28 10:07:27;;;;;;;5.80;3.40;;;21.50;52.30;;;;;;5095979;28;20221;-72
2020/12/28 10:09:52;;;;;;;5.70;2.23;;;21.60;52.40;;;;;;5094727;28;20200;-73
2020/12/28 10:12:18;;;;;;;3.40;2.87;;;21.50;52.30;;;;;;5095796;28;20172;-73
2020/12/28 10:14:43;;;;;;;2.80;2.00;;;21.60;52.50;;;;;;5095840;28;20536;-72
2020/12/28 10:17:09;;;;;;;4.63;2.57;;;21.60;52.40;;;;;;5094518;28;20695;-73
2020/12/28 10:19:35;;;;;;;5.90;2.57;;;21.50;52.40;;;;;;5095785;28;20673;-73
2020/12/28 10:22:00;;;;;;;4.60;2.33;;;21.60;52.50;;;;;;5095702;28;20177;-73
2020/12/28 10:24:26;;;;;;;3.43;2.10;;;21.60;52.40;;;;;;5095734;28;20169;-73
2020/12/28 10:26:52;;;;;;;6.93;2.47;;;21.60;52.40;;;;;;5095565;28;20186;-73
2020/12/28 10:29:18;;;;;;;4.47;2.20;;;21.60;52.50;;;;;;5095800;28;20189;-72
2020/12/28 10:31:43;;;;;;;4.30;2.47;;;21.60;52.40;;;;;;5095446;28;20781;-73
2020/12/28 10:34:09;;;;;;;6.13;3.13;;;21.60;52.40;;;;;;5095433;28;20250;-73
2020/12/28 10:36:34;;;;;;;5.57;3.47;;;21.60;52.90;;;;;;5095362;28;20672;-72
2020/12/28 10:39:01;;;;;;;6.97;3.13;;;21.60;52.40;;;;;;5095591;28;20174;-72
2020/12/28 10:41:28;;;;;;;6.30;2.67;;;21.60;52.40;;;;;;5095556;28;20253;-73
2020/12/28 10:43:54;;;;;;;7.00;3.10;;;21.60;52.40;;;;;;5095514;28;20417;-73
2020/12/28 10:46:20;;;;;;;7.97;4.30;;;21.60;52.40;;;;;;5094581;28;20428;-72
2020/12/28 10:48:46;;;;;;;6.60;3.10;;;21.60;52.40;;;;;;5095125;28;20414;-73
2020/12/28 10:51:12;;;;;;;4.57;2.90;;;21.60;52.40;;;;;;5095088;28;20502;-73
2020/12/28 10:53:38;;;;;;;4.00;2.70;;;21.60;52.40;;;;;;5095111;28;20198;-72
2020/12/28 10:56:07;;;;;;;6.40;3.57;;;21.60;52.40;;;;;;5094901;28;20447;-73
2020/12/28 10:58:35;;;;;;;10.07;3.40;;;21.60;52.50;;;;;;5095290;28;20396;-73
2020/12/28 11:01:04;;;;;;;9.07;3.43;;;21.60;52.50;;;;;;5094888;28;20406;-72
2020/12/28 11:03:30;;;;;;;9.40;4.10;;;21.60;52.50;;;;;;5095219;28;20981;-73
2020/12/28 11:05:55;;;;;;;8.60;3.70;;;21.60;52.40;;;;;;5094739;28;20506;-73
2020/12/28 11:08:21;;;;;;;6.80;3.40;;;21.60;52.50;;;;;;5094642;28;20544;-73
2020/12/28 11:10:46;;;;;;;9.30;3.50;;;21.60;52.50;;;;;;5094739;28;20201;-72
2020/12/28 11:13:12;;;;;;;8.70;3.50;;;21.60;53.10;;;;;;5094618;28;20193;-73
2020/12/28 11:15:38;;;;;;;14.80;4.13;;;21.60;52.50;;;;;;5094582;28;20176;-72
2020/12/28 11:18:04;;;;;;;5.70;3.20;;;21.60;52.50;;;;;;5093555;28;20217;-73
2020/12/28 11:20:30;;;;;;;8.63;3.20;;;21.50;52.50;;;;;;5094555;28;20185;-71
2020/12/28 11:22:56;;;;;;;8.07;3.20;;;21.50;52.50;;;;;;5093199;28;20514;-73
2020/12/28 11:25:21;;;;;;;6.47;3.07;;;21.50;52.50;;;;;;5094705;28;20203;-73
2020/12/28 11:27:47;;;;;;;8.17;3.23;;;21.50;52.50;;;;;;5094310;28;20196;-72
2020/12/28 11:30:13;;;;;;;10.43;3.43;;;21.60;52.60;;;;;;5094378;28;20170;-73
2020/12/28 11:32:38;;;;;;;6.27;2.97;;;21.50;52.50;;;;;;5094548;28;20228;-71
2020/12/28 11:35:04;;;;;;;6.13;2.70;;;21.50;52.50;;;;;;5094536;28;20636;-73
2020/12/28 11:37:31;;;;;;;6.27;3.17;;;21.60;52.60;;;;;;5094157;28;20194;-72
2020/12/28 11:39:58;;;;;;;5.30;3.17;;;21.50;52.50;;;;;;5094429;28;20494;-73
2020/12/28 11:42:24;;;;;;;4.83;2.80;;;21.50;52.50;;;;;;5093822;28;20813;-73
2020/12/28 11:44:51;;;;;;;5.93;3.20;;;21.60;53.10;;;;;;5094057;28;20412;-72
2020/12/28 11:47:17;;;;;;;5.40;3.40;;;21.60;52.50;;;;;;5094002;28;20430;-72
2020/12/28 11:49:42;;;;;;;8.70;3.50;;;21.50;52.40;;;;;;5093962;28;20490;-72
2020/12/28 11:52:08;;;;;;;6.40;3.77;;;21.60;52.50;;;;;;5093997;28;20408;-72
2020/12/28 11:54:33;;;;;;;8.10;4.13;;;21.60;52.50;;;;;;5093756;28;20209;-74
2020/12/28 11:56:59;;;;;;;4.50;2.97;;;21.60;52.50;;;;;;5093800;28;20225;-71
2020/12/28 11:59:25;;;;;;;5.70;3.00;;;21.60;52.50;;;;;;5093788;28;20170;-72
2020/12/28 12:01:50;;;;;;;6.20;3.17;;;21.60;52.50;;;;;;5093789;28;20178;-72
2020/12/28 12:04:16;;;;;;;8.43;3.43;;;21.60;52.50;;;;;;5093788;28;20166;-72
2020/12/28 12:06:41;;;;;;;6.87;3.73;;;21.60;52.50;;;;;;5093733;28;20227;-74
2020/12/28 12:09:14;;;;;;;4.77;2.53;;;21.60;52.50;;;;;;5093646;28;20170;-74
2020/12/28 12:11:45;;;;;;;5.63;2.90;;;21.60;52.50;;;;;;5093996;28;20226;-73
2020/12/28 12:14:11;;;;;;;7.30;3.43;;;21.60;52.50;;;;;;5093727;28;20458;-74
2020/12/28 12:16:37;;;;;;;5.23;3.00;;;21.60;52.40;;;;;;5093472;28;20448;-73
2020/12/28 12:19:03;;;;;;;4.33;3.50;;;21.60;52.50;;;;;;5094299;28;20738;-72
2020/12/28 12:21:29;;;;;;;8.23;3.50;;;21.60;52.50;;;;;;5093720;28;20473;-74
2020/12/28 12:23:55;;;;;;;6.47;3.97;;;21.60;52.50;;;;;;5093472;28;20403;-74
2020/12/28 12:26:22;;;;;;;6.83;3.40;;;21.60;52.50;;;;;;5093564;28;20459;-74
2020/12/28 12:28:48;;;;;;;7.50;3.43;;;21.60;52.50;;;;;;5093309;28;20180;-74
2020/12/28 12:31:14;;;;;;;8.40;4.70;;;21.60;52.50;;;;;;5093446;28;20404;-74
2020/12/28 12:33:41;;;;;;;5.70;3.00;;;21.60;52.60;;;;;;5093114;28;20981;-73
2020/12/28 12:36:07;;;;;;;8.80;4.30;;;21.60;52.60;;;;;;5093159;28;20922;-74
2020/12/28 12:38:33;;;;;;;5.40;3.00;;;21.60;52.50;;;;;;5093408;28;20457;-74
2020/12/28 12:40:58;;;;;;;9.27;3.60;;;21.60;52.60;;;;;;5093581;28;20777;-73
2020/12/28 12:43:24;;;;;;;6.53;3.30;;;21.60;52.60;;;;;;5093050;28;20204;-73